createdAt,value
2019-06-08T06:40:06.110Z,1011.26
2019-06-08T06:41:06.095Z,1011.39
2019-06-08T06:42:06.081Z,1011.76
2019-06-08T06:43:06.074Z,1011.33
2019-06-08T06:44:06.072Z,1011.54
2019-06-08T06:45:06.047Z,1011.45
2019-06-08T06:46:06.041Z,1011.44
2019-06-08T06:47:06.025Z,1011.58
2019-06-08T06:48:06.013Z,1011.41
2019-06-08T06:49:06.010Z,1011.49
2019-06-08T06:50:05.993Z,1011.44
2019-06-08T06:51:05.982Z,1011.40
2019-06-08T06:52:05.970Z,1011.56
2019-06-08T06:53:05.959Z,1011.45
2019-06-08T06:54:05.957Z,1011.48
2019-06-08T06:55:05.937Z,1011.66
2019-06-08T06:56:05.923Z,1011.38
2019-06-08T06:57:05.917Z,1011.51
2019-06-08T06:58:05.906Z,1011.53
2019-06-08T06:59:05.905Z,1011.64
2019-06-08T07:00:05.928Z,1011.54
2019-06-08T07:01:05.881Z,1011.48
2019-06-08T07:02:05.858Z,1011.53
2019-06-08T07:03:05.848Z,1012.09
2019-06-08T07:04:05.837Z,1012.37
2019-06-08T07:05:05.836Z,1011.87
2019-06-08T07:06:05.815Z,1011.89
2019-06-08T07:07:05.832Z,1011.65
2019-06-08T07:08:05.788Z,1011.69
2019-06-08T07:09:05.778Z,1011.77
2019-06-08T07:10:05.778Z,1011.69
2019-06-08T07:11:05.758Z,1011.79
2019-06-08T07:12:05.749Z,1012.03
2019-06-08T07:13:05.735Z,1012.31
2019-06-08T07:14:05.721Z,1011.80
2019-06-08T07:15:05.723Z,1011.85
2019-06-08T07:16:17.846Z,1011.80
2019-06-08T07:17:06.689Z,1011.80
2019-06-08T07:18:05.688Z,1011.81
2019-06-08T07:19:05.670Z,1011.78
2019-06-08T07:20:05.664Z,1011.80
2019-06-08T07:21:05.645Z,1011.85
2019-06-08T07:22:05.636Z,1011.68
2019-06-08T07:23:05.623Z,1011.85
2019-06-08T07:24:05.624Z,1011.93
2019-06-08T07:25:05.608Z,1011.84
2019-06-08T07:26:05.590Z,1011.81
2019-06-08T07:27:07.587Z,1011.87
2019-06-08T07:28:05.568Z,1011.85
2019-06-08T07:29:05.556Z,1011.84
2019-06-08T07:30:05.586Z,1011.98
2019-06-08T07:31:05.534Z,1011.95
2019-06-08T07:32:05.522Z,1011.98
2019-06-08T07:33:05.513Z,1012.09
2019-06-08T07:34:05.500Z,1011.93
2019-06-08T07:35:05.501Z,1011.99
2019-06-08T07:36:05.475Z,1012.07
2019-06-08T07:37:05.468Z,1011.95
2019-06-08T07:38:05.617Z,1012.04
2019-06-08T07:39:05.443Z,1011.93
2019-06-08T07:40:05.564Z,1011.95
2019-06-08T07:41:05.420Z,1011.90
2019-06-08T07:42:05.415Z,1011.98
2019-06-08T07:43:05.402Z,1011.90
2019-06-08T07:44:05.390Z,1011.88
2019-06-08T07:45:05.391Z,1011.90
2019-06-08T07:46:05.380Z,1011.92
2019-06-08T07:47:05.354Z,1011.77
2019-06-08T07:48:05.342Z,1011.87
2019-06-08T07:49:05.334Z,1012.00
2019-06-08T07:50:05.339Z,1011.90
2019-06-08T07:51:05.307Z,1011.90
2019-06-08T07:52:10.274Z,1012.04
2019-06-08T07:53:06.284Z,1011.91
2019-06-08T07:54:05.273Z,1011.83
2019-06-08T07:55:05.268Z,1012.02
2019-06-08T07:56:05.261Z,1011.96
2019-06-08T07:57:05.240Z,1012.24
2019-06-08T07:58:05.232Z,1012.20
2019-06-08T07:59:05.223Z,1012.01
2019-06-08T08:00:09.460Z,1012.07
2019-06-08T08:01:08.228Z,1012.14
2019-06-08T08:02:05.184Z,1012.17
2019-06-08T08:03:05.174Z,1012.36
2019-06-08T08:04:05.164Z,1012.28
2019-06-08T08:05:05.162Z,1012.13
2019-06-08T08:06:05.147Z,1012.26
2019-06-08T08:07:05.139Z,1012.16
2019-06-08T08:08:05.120Z,1012.10
2019-06-08T08:09:05.107Z,1012.11
2019-06-08T08:10:05.157Z,1012.29
2019-06-08T08:11:05.095Z,1012.21
2019-06-08T08:12:05.079Z,1012.17
2019-06-08T08:13:05.061Z,1012.19
2019-06-08T08:14:05.049Z,1012.20
2019-06-08T08:15:05.039Z,1012.19
2019-06-08T08:16:05.040Z,1012.13
2019-06-08T08:17:05.019Z,1012.30
2019-06-08T08:18:05.007Z,1012.20
2019-06-08T08:19:04.994Z,1012.25
2019-06-08T08:20:04.984Z,1012.18
2019-06-08T08:21:15.470Z,1012.37
2019-06-08T08:22:19.551Z,1012.23
2019-06-08T08:23:08.972Z,1012.23
2019-06-08T08:24:07.184Z,1012.34
2019-06-08T08:25:05.220Z,1012.24
2019-06-08T08:26:04.925Z,1012.27
2019-06-08T08:27:04.912Z,1012.25
2019-06-08T08:28:04.897Z,1012.13
2019-06-08T08:29:04.887Z,1012.22
2019-06-08T08:30:04.879Z,1012.16
2019-06-08T08:31:04.879Z,1012.20
2019-06-08T08:32:04.855Z,1012.10
2019-06-08T08:33:07.563Z,1012.28
2019-06-08T08:34:05.914Z,1012.29
2019-06-08T08:35:04.836Z,1012.21
2019-06-08T08:36:07.156Z,1012.31
2019-06-08T08:37:07.099Z,1012.32
2019-06-08T08:38:07.352Z,1012.21
2019-06-08T08:39:04.774Z,1012.26
2019-06-08T08:40:04.761Z,1012.27
2019-06-08T08:41:10.058Z,1012.38
2019-06-08T08:42:08.335Z,1012.35
2019-06-08T08:43:04.731Z,1012.46
2019-06-08T08:44:05.107Z,1012.53
2019-06-08T08:45:07.870Z,1012.37
2019-06-08T08:46:04.695Z,1012.45
2019-06-08T08:47:04.696Z,1012.41
2019-06-08T08:48:21.058Z,1012.61
2019-06-08T08:49:11.987Z,1012.54
2019-06-08T08:50:07.409Z,1012.52
2019-06-08T08:51:04.644Z,1012.58
2019-06-08T08:52:04.640Z,1012.49
2019-06-08T08:53:04.622Z,1012.50
2019-06-08T08:54:05.443Z,1012.70
2019-06-08T08:55:04.599Z,1012.66
2019-06-08T08:56:04.586Z,1012.62
2019-06-08T08:57:05.308Z,1012.63
2019-06-08T08:58:04.566Z,1012.73
2019-06-08T08:59:04.555Z,1012.81
2019-06-08T09:00:05.289Z,1012.83
2019-06-08T09:01:04.534Z,1012.65
2019-06-08T09:02:04.535Z,1012.72
2019-06-08T09:03:24.335Z,1012.72
2019-06-08T09:04:06.548Z,1012.85
2019-06-08T09:05:04.491Z,1012.86
2019-06-08T09:06:04.714Z,1012.84
2019-06-08T09:07:07.780Z,1012.94
2019-06-08T09:08:05.455Z,1012.87
2019-06-08T09:09:04.443Z,1012.87
2019-06-08T09:10:04.522Z,1012.90
2019-06-08T09:11:04.422Z,1012.95
2019-06-08T09:12:04.673Z,1013.00
2019-06-08T09:13:04.798Z,1013.05
2019-06-08T09:14:09.571Z,1013.31
2019-06-08T09:15:08.319Z,1013.35
2019-06-08T09:16:04.613Z,1013.01
2019-06-08T09:17:04.421Z,1013.10
2019-06-08T09:18:04.396Z,1013.42
2019-06-08T09:19:04.730Z,1013.12
2019-06-08T09:20:04.454Z,1013.10
2019-06-08T09:21:04.529Z,1013.12
2019-06-08T09:22:04.430Z,1013.05
2019-06-08T09:23:14.628Z,1013.02
2019-06-08T09:24:07.490Z,1013.07
2019-06-08T09:25:04.603Z,1013.29
2019-06-08T09:26:11.582Z,1013.17
2019-06-08T09:27:07.781Z,1012.90
2019-06-08T09:28:04.870Z,1013.22
2019-06-08T09:29:10.092Z,1013.21
2019-06-08T09:30:05.274Z,1013.12
2019-06-08T09:31:04.287Z,1013.20
2019-06-08T09:32:04.302Z,1013.18
2019-06-08T09:33:04.357Z,1013.27
2019-06-08T09:34:10.746Z,1013.13
2019-06-08T09:35:05.191Z,1013.27
2019-06-08T09:36:05.025Z,1013.03
2019-06-08T09:37:05.127Z,1013.12
2019-06-08T09:38:05.037Z,1013.07
2019-06-08T09:39:05.341Z,1013.35
2019-06-08T09:40:05.155Z,1013.34
2019-06-08T09:41:05.452Z,1013.15
2019-06-08T09:42:05.131Z,1013.19
2019-06-08T09:43:10.340Z,1013.13
2019-06-08T09:44:05.966Z,1013.03
2019-06-08T09:45:05.512Z,1013.26
2019-06-08T09:46:05.329Z,1013.44
2019-06-08T09:47:09.429Z,1013.35
2019-06-08T09:48:06.448Z,1013.34
2019-06-08T09:49:07.607Z,1013.17
2019-06-08T09:50:05.702Z,1013.23
2019-06-08T09:51:05.469Z,1013.21
2019-06-08T09:52:05.152Z,1013.10
2019-06-08T09:53:22.046Z,1013.37
2019-06-08T09:54:08.535Z,1013.31
2019-06-08T09:55:06.949Z,1013.31
2019-06-08T09:56:06.437Z,1013.52
2019-06-08T09:57:06.643Z,1013.40
2019-06-08T09:58:06.655Z,1013.18
2019-06-08T09:59:07.127Z,1013.20
2019-06-08T10:00:14.471Z,1013.21
2019-06-08T10:01:06.142Z,1013.30
2019-06-08T10:02:09.032Z,1013.29
2019-06-08T10:03:06.500Z,1013.31
2019-06-08T10:04:06.064Z,1013.35
2019-06-08T10:05:04.549Z,1013.69
2019-06-08T10:06:08.126Z,1013.52
2019-06-08T10:07:05.729Z,1013.60
2019-06-08T10:08:04.617Z,1013.53
2019-06-08T10:09:04.816Z,1013.61
2019-06-08T10:10:04.812Z,1013.48
2019-06-08T10:11:05.674Z,1013.61
2019-06-08T10:12:05.035Z,1013.66
2019-06-08T10:13:06.530Z,1013.74
2019-06-08T10:14:08.736Z,1013.58
2019-06-08T10:15:04.793Z,1013.41
2019-06-08T10:16:06.888Z,1013.67
2019-06-08T10:17:06.658Z,1013.44
2019-06-08T10:18:04.840Z,1013.56
2019-06-08T10:19:06.884Z,1013.61
2019-06-08T10:20:04.996Z,1013.54
2019-06-08T10:21:06.023Z,1013.61
2019-06-08T10:22:05.027Z,1013.97
2019-06-08T10:23:05.566Z,1013.95
2019-06-08T10:24:06.319Z,1013.73
2019-06-08T10:25:07.493Z,1013.75
2019-06-08T10:26:05.167Z,1013.64
2019-06-08T10:27:03.671Z,1013.86
2019-06-08T10:28:07.796Z,1013.72
2019-06-08T10:29:06.273Z,1013.51
2019-06-08T10:30:07.009Z,1013.67
2019-06-08T10:31:05.219Z,1013.73
2019-06-08T10:32:03.769Z,1013.66
2019-06-08T10:33:05.185Z,1013.60
2019-06-08T10:34:05.379Z,1013.75
2019-06-08T10:35:05.351Z,1013.51
2019-06-08T10:36:05.310Z,1013.57
2019-06-08T10:37:09.911Z,1013.86
2019-06-08T10:38:07.118Z,1013.65
2019-06-08T10:39:07.266Z,1013.56
2019-06-08T10:40:06.359Z,1013.63
2019-06-08T10:41:14.090Z,1013.66
2019-06-08T10:42:05.266Z,1013.62
2019-06-08T10:43:04.498Z,1013.68
2019-06-08T10:44:03.534Z,1013.67
2019-06-08T10:45:07.652Z,1013.75
2019-06-08T10:46:10.226Z,1013.65
2019-06-08T10:47:06.595Z,1013.82
2019-06-08T10:48:04.815Z,1013.72
2019-06-08T10:49:04.171Z,1013.68
2019-06-08T10:50:09.149Z,1013.77
2019-06-08T10:51:05.881Z,1013.80
2019-06-08T10:52:05.254Z,1013.79
2019-06-08T10:53:05.866Z,1013.86
2019-06-08T10:54:04.379Z,1013.71
2019-06-08T10:55:05.033Z,1013.80
2019-06-08T10:56:05.140Z,1013.84
2019-06-08T10:57:07.235Z,1013.79
2019-06-08T10:58:04.414Z,1013.90
2019-06-08T10:59:04.878Z,1013.70
2019-06-08T11:00:13.659Z,1013.79
2019-06-08T11:01:07.843Z,1013.77
2019-06-08T11:02:07.328Z,1013.78
2019-06-08T11:03:06.718Z,1013.95
2019-06-08T11:04:03.389Z,1013.71
2019-06-08T11:05:07.361Z,1013.89
2019-06-08T11:06:04.841Z,1013.90
2019-06-08T11:07:07.178Z,1013.65
2019-06-08T11:08:06.064Z,1013.74
2019-06-08T11:09:06.106Z,1013.93
2019-06-08T11:10:05.649Z,1014.26
2019-06-08T11:11:04.875Z,1014.27
2019-06-08T11:12:03.907Z,1013.83
2019-06-08T11:13:08.038Z,1013.93
2019-06-08T11:14:05.694Z,1013.86
2019-06-08T11:15:03.610Z,1013.92
2019-06-08T11:16:04.436Z,1013.90
2019-06-08T11:17:03.020Z,1013.98
2019-06-08T11:18:05.865Z,1014.10
2019-06-08T11:19:04.274Z,1013.95
2019-06-08T11:20:04.412Z,1014.01
2019-06-08T11:21:03.745Z,1014.03
2019-06-08T11:22:07.395Z,1014.16
2019-06-08T11:23:05.548Z,1014.06
2019-06-08T11:24:15.502Z,1014.13
2019-06-08T11:25:05.950Z,1014.14
2019-06-08T11:26:12.084Z,1014.01
2019-06-08T11:27:05.569Z,1014.02
2019-06-08T11:28:03.703Z,1014.09
2019-06-08T11:29:03.037Z,1014.07
2019-06-08T11:30:10.816Z,1014.05
2019-06-08T11:31:04.043Z,1013.92
2019-06-08T11:32:04.177Z,1014.01
2019-06-08T11:33:03.811Z,1014.03
2019-06-08T11:34:03.973Z,1014.07
2019-06-08T11:35:04.093Z,1014.24
2019-06-08T11:36:06.094Z,1014.15
2019-06-08T11:37:05.152Z,1013.98
2019-06-08T11:38:03.870Z,1014.17
2019-06-08T11:39:04.029Z,1014.13
2019-06-08T11:40:04.431Z,1014.23
2019-06-08T11:41:04.594Z,1014.19
2019-06-08T11:42:04.311Z,1014.15
2019-06-08T11:43:04.307Z,1014.42
2019-06-08T11:44:03.832Z,1014.57
2019-06-08T11:45:02.706Z,1014.34
2019-06-08T11:46:02.693Z,1014.31
2019-06-08T11:47:02.706Z,1014.21
2019-06-08T11:48:02.844Z,1014.27
2019-06-08T11:49:05.874Z,1014.23
2019-06-08T11:50:02.956Z,1014.26
2019-06-08T11:51:02.693Z,1014.26
2019-06-08T11:52:02.635Z,1014.27
2019-06-08T11:53:04.011Z,1014.27
2019-06-08T11:54:02.995Z,1014.30
2019-06-08T11:55:04.147Z,1014.37
2019-06-08T11:56:02.768Z,1014.33
2019-06-08T11:57:02.864Z,1014.23
2019-06-08T11:58:02.922Z,1014.35
2019-06-08T11:59:03.073Z,1014.24
2019-06-08T12:00:09.221Z,1014.22
2019-06-08T12:01:05.044Z,1014.29
2019-06-08T12:02:03.537Z,1014.24
2019-06-08T12:03:03.781Z,1014.18
2019-06-08T12:04:03.591Z,1014.35
2019-06-08T12:05:03.695Z,1014.33
2019-06-08T12:06:02.483Z,1014.39
2019-06-08T12:07:02.452Z,1014.30
2019-06-08T12:08:02.856Z,1014.39
2019-06-08T12:09:02.717Z,1014.43
2019-06-08T12:10:02.984Z,1014.40
2019-06-08T12:11:03.854Z,1014.37
2019-06-08T12:12:02.554Z,1014.54
2019-06-08T12:13:02.597Z,1014.60
2019-06-08T12:14:02.756Z,1014.78
2019-06-08T12:15:03.012Z,1014.57
2019-06-08T12:16:03.357Z,1014.46
2019-06-08T12:17:03.402Z,1014.49
2019-06-08T12:18:03.386Z,1014.55
2019-06-08T12:19:04.385Z,1014.56
2019-06-08T12:20:03.369Z,1014.51
2019-06-08T12:21:03.693Z,1014.51
2019-06-08T12:22:02.765Z,1014.43
2019-06-08T12:23:02.313Z,1014.39
2019-06-08T12:24:02.276Z,1014.42
2019-06-08T12:25:02.264Z,1014.39
2019-06-08T12:26:02.257Z,1014.39
2019-06-08T12:27:10.110Z,1014.43
2019-06-08T12:28:04.483Z,1014.41
2019-06-08T12:29:02.209Z,1014.47
2019-06-08T12:30:08.998Z,1014.42
2019-06-08T12:31:03.206Z,1014.55
2019-06-08T12:32:02.167Z,1014.40
2019-06-08T12:33:02.176Z,1014.73
2019-06-08T12:34:02.223Z,1014.58
2019-06-08T12:35:02.137Z,1014.60
2019-06-08T12:36:02.175Z,1014.75
2019-06-08T12:37:02.115Z,1014.55
2019-06-08T12:38:02.103Z,1014.54
2019-06-08T12:39:02.090Z,1014.52
2019-06-08T12:40:02.137Z,1014.46
2019-06-08T12:41:02.077Z,1014.39
2019-06-08T12:42:02.064Z,1014.51
2019-06-08T12:43:02.082Z,1014.43
2019-06-08T12:44:02.060Z,1014.51
2019-06-08T12:45:02.028Z,1014.51
2019-06-08T12:46:02.089Z,1014.47
2019-06-08T12:47:02.031Z,1014.31
2019-06-08T12:48:01.990Z,1014.48
2019-06-08T12:49:02.089Z,1014.51
2019-06-08T12:50:01.972Z,1014.22
2019-06-08T12:51:01.993Z,1014.36
2019-06-08T12:52:01.946Z,1014.40
2019-06-08T12:53:01.935Z,1014.37
2019-06-08T12:54:01.929Z,1014.35
2019-06-08T12:55:06.867Z,1014.44
2019-06-08T12:56:02.913Z,1014.45
2019-06-08T12:57:01.891Z,1014.40
2019-06-08T12:58:01.886Z,1014.42
2019-06-08T12:59:01.870Z,1014.52
2019-06-08T13:00:01.895Z,1014.48
2019-06-08T13:01:01.866Z,1014.51
2019-06-08T13:02:01.838Z,1014.55
2019-06-08T13:03:01.827Z,1014.53
2019-06-08T13:04:01.822Z,1014.37
2019-06-08T13:05:01.807Z,1014.32
2019-06-08T13:06:01.823Z,1014.29
2019-06-08T13:07:01.784Z,1014.53
2019-06-08T13:08:01.779Z,1014.43
2019-06-08T13:09:01.759Z,1014.41
2019-06-08T13:10:01.758Z,1014.51
2019-06-08T13:11:01.745Z,1014.45
2019-06-08T13:12:01.725Z,1014.57
2019-06-08T13:13:01.714Z,1014.49
2019-06-08T13:14:01.781Z,1014.53
2019-06-08T13:15:01.703Z,1014.53
2019-06-08T13:16:01.698Z,1014.55
2019-06-08T13:17:01.683Z,1014.56
2019-06-08T13:18:01.663Z,1014.52
2019-06-08T13:19:01.650Z,1014.53
2019-06-08T13:20:01.655Z,1014.57
2019-06-08T13:21:15.675Z,1014.58
2019-06-08T13:22:02.749Z,1014.61
2019-06-08T13:23:01.607Z,1014.64
2019-06-08T13:24:01.625Z,1014.65
2019-06-08T13:25:15.626Z,1014.91
2019-06-08T13:26:02.582Z,1014.68
2019-06-08T13:27:01.574Z,1014.57
2019-06-08T13:28:01.551Z,1014.86
2019-06-08T13:29:01.541Z,1014.85
2019-06-08T13:30:01.528Z,1014.67
2019-06-08T13:31:01.516Z,1014.57
2019-06-08T13:32:01.694Z,1014.82
2019-06-08T13:33:01.549Z,1014.70
2019-06-08T13:34:01.528Z,1014.62
2019-06-08T13:35:01.499Z,1014.61
2019-06-08T13:36:01.487Z,1014.71
2019-06-08T13:37:01.469Z,1014.85
2019-06-08T13:38:01.593Z,1014.71
2019-06-08T13:39:01.427Z,1014.83
2019-06-08T13:40:01.428Z,1014.72
2019-06-08T13:41:01.410Z,1014.80
2019-06-08T13:42:01.440Z,1014.90
2019-06-08T13:43:01.392Z,1014.74
2019-06-08T13:44:01.379Z,1014.85
2019-06-08T13:45:01.363Z,1014.77
2019-06-08T13:46:01.350Z,1014.76
2019-06-08T13:47:01.365Z,1014.81
2019-06-08T13:48:01.394Z,1014.82
2019-06-08T13:49:01.317Z,1014.74
2019-06-08T13:50:01.311Z,1014.74
2019-06-08T13:51:01.326Z,1014.64
2019-06-08T13:52:01.319Z,1014.86
2019-06-08T13:53:01.277Z,1014.85
2019-06-08T13:54:01.275Z,1014.85
2019-06-08T13:55:01.299Z,1014.83
2019-06-08T13:56:01.243Z,1014.84
2019-06-08T13:57:01.247Z,1014.87
2019-06-08T13:58:01.273Z,1015.05
2019-06-08T13:59:01.259Z,1014.82
2019-06-08T14:00:01.220Z,1014.87
2019-06-08T14:01:01.195Z,1014.95
2019-06-08T14:02:01.190Z,1014.94
2019-06-08T14:05:24.032Z,1014.77
2019-06-08T14:06:21.696Z,1014.86
2019-06-08T14:07:23.770Z,1014.83
2019-06-08T14:08:22.402Z,1014.83
2019-06-08T14:09:19.324Z,1014.91
2019-06-08T14:10:21.269Z,1014.94
2019-06-08T14:11:19.665Z,1014.86
2019-06-08T14:12:21.655Z,1014.92
2019-06-08T14:13:24.560Z,1014.72
2019-06-08T14:14:21.214Z,1014.77
2019-06-08T14:15:19.313Z,1014.76
2019-06-08T14:16:21.582Z,1014.82
2019-06-08T14:17:20.931Z,1014.83
2019-06-08T14:18:24.984Z,1014.73
2019-06-08T14:19:22.801Z,1014.77
2019-06-08T14:20:19.872Z,1014.72
2019-06-08T14:21:28.050Z,1014.61
2019-06-08T14:22:21.799Z,1014.60
2019-06-08T14:23:21.076Z,1014.55
2019-06-08T14:24:25.730Z,1014.64
2019-06-08T14:25:21.718Z,1014.63
2019-06-08T14:26:20.121Z,1014.59
2019-06-08T14:27:19.349Z,1014.61
2019-06-08T14:28:21.072Z,1014.58
2019-06-08T14:29:20.202Z,1014.49
2019-06-08T14:30:20.541Z,1014.52
2019-06-08T14:31:21.872Z,1014.70
2019-06-08T14:32:19.565Z,1014.53
2019-06-08T14:33:24.169Z,1014.57
2019-06-08T14:34:21.818Z,1014.67
2019-06-08T14:35:21.981Z,1014.75
2019-06-08T14:36:21.601Z,1015.04
2019-06-08T14:37:18.408Z,1014.65
2019-06-08T14:38:23.845Z,1014.75
2019-06-08T14:39:20.602Z,1014.72
2019-06-08T14:40:19.348Z,1014.71
2019-06-08T14:41:19.798Z,1014.67
2019-06-08T14:42:23.255Z,1014.68
2019-06-08T14:43:19.910Z,1014.75
2019-06-08T14:44:19.881Z,1014.84
2019-06-08T14:45:19.666Z,1014.77
2019-06-08T14:46:19.878Z,1014.75
2019-06-08T14:47:18.753Z,1014.79
2019-06-08T14:48:21.976Z,1014.86
2019-06-08T14:49:26.518Z,1014.86
2019-06-08T14:50:20.211Z,1014.82
2019-06-08T14:51:18.693Z,1014.74
2019-06-08T14:52:19.368Z,1014.80
2019-06-08T14:53:19.879Z,1014.85
2019-06-08T14:54:22.482Z,1014.89
2019-06-08T14:55:20.740Z,1014.69
2019-06-08T14:56:19.787Z,1014.79
2019-06-08T14:57:19.358Z,1014.74
2019-06-08T14:58:23.136Z,1014.67
2019-06-08T14:59:21.567Z,1014.76
2019-06-08T15:00:20.497Z,1014.78
2019-06-08T15:01:20.032Z,1014.80
2019-06-08T15:02:19.390Z,1014.74
2019-06-08T15:03:19.709Z,1014.79
2019-06-08T15:04:20.269Z,1014.94
2019-06-08T15:05:19.594Z,1015.13
2019-06-08T15:06:19.331Z,1015.10
2019-06-08T15:07:20.655Z,1014.75
2019-06-08T15:08:19.577Z,1014.77
2019-06-08T15:09:19.343Z,1015.08
2019-06-08T15:10:18.791Z,1014.91
2019-06-08T15:11:19.410Z,1014.79
2019-06-08T15:12:19.343Z,1014.85
2019-06-08T15:13:18.860Z,1014.86
2019-06-08T15:14:17.998Z,1014.89
2019-06-08T15:15:18.751Z,1014.92
2019-06-08T15:16:18.272Z,1014.80
2019-06-08T15:17:17.963Z,1014.88
2019-06-08T15:18:18.542Z,1014.91
2019-06-08T15:19:18.480Z,1014.94
2019-06-08T15:20:17.931Z,1014.86
2019-06-08T15:21:21.331Z,1014.90
2019-06-08T15:22:20.756Z,1015.06
2019-06-08T15:23:21.263Z,1014.92
2019-06-08T15:24:18.545Z,1014.95
2019-06-08T15:25:18.512Z,1015.10
2019-06-08T15:26:27.090Z,1014.94
2019-06-08T15:27:21.517Z,1014.97
2019-06-08T15:28:18.299Z,1014.99
2019-06-08T15:29:17.830Z,1015.03
2019-06-08T15:30:17.944Z,1014.98
2019-06-08T15:31:18.438Z,1015.00
2019-06-08T15:32:17.984Z,1015.03
2019-06-08T15:33:18.172Z,1014.98
2019-06-08T15:34:18.107Z,1015.02
2019-06-08T15:35:18.160Z,1014.95
2019-06-08T15:36:20.220Z,1014.97
2019-06-08T15:37:18.568Z,1014.98
2019-06-08T15:38:20.862Z,1014.93
2019-06-08T15:39:18.082Z,1015.23
2019-06-08T15:40:17.865Z,1014.87
2019-06-08T15:41:21.398Z,1014.95
2019-06-08T15:42:18.686Z,1015.09
2019-06-08T15:43:18.261Z,1014.91
2019-06-08T15:44:21.118Z,1015.06
2019-06-08T15:45:18.646Z,1014.90
2019-06-08T15:46:18.382Z,1015.08
2019-06-08T15:47:18.107Z,1015.02
2019-06-08T15:48:20.208Z,1014.96
2019-06-08T15:49:18.587Z,1014.96
2019-06-08T15:50:18.057Z,1014.95
2019-06-08T15:51:17.589Z,1015.03
2019-06-08T15:52:17.633Z,1015.02
2019-06-08T15:53:18.405Z,1015.24
2019-06-08T15:54:17.552Z,1015.17
2019-06-08T15:55:19.354Z,1015.07
2019-06-08T15:56:18.690Z,1015.33
2019-06-08T15:57:18.092Z,1015.10
2019-06-08T15:58:18.277Z,1015.05
2019-06-08T15:59:17.492Z,1015.10
2019-06-08T16:00:18.505Z,1015.31
2019-06-08T16:01:17.467Z,1015.10
2019-06-08T16:02:17.459Z,1015.13
2019-06-08T16:03:17.468Z,1015.18
2019-06-08T16:04:17.437Z,1015.05
2019-06-08T16:05:17.426Z,1015.14
2019-06-08T16:06:17.414Z,1015.05
2019-06-08T16:07:17.413Z,1014.94
2019-06-08T16:08:17.391Z,1015.04
2019-06-08T16:09:17.393Z,1015.02
2019-06-08T16:10:17.372Z,1015.05
2019-06-08T16:11:17.366Z,1015.05
2019-06-08T16:12:17.365Z,1015.13
2019-06-08T16:13:17.337Z,1015.19
2019-06-08T16:14:17.336Z,1015.16
2019-06-08T16:15:17.319Z,1015.17
2019-06-08T16:16:17.304Z,1015.15
2019-06-08T16:17:17.300Z,1015.08
2019-06-08T16:18:17.290Z,1015.32
2019-06-08T16:19:17.286Z,1015.13
2019-06-08T16:20:17.266Z,1015.26
2019-06-08T16:21:17.277Z,1015.24
2019-06-08T16:22:17.235Z,1015.27
2019-06-08T16:23:17.226Z,1015.29
2019-06-08T16:24:17.222Z,1015.39
2019-06-08T16:25:17.200Z,1015.34
2019-06-08T16:26:17.194Z,1015.60
2019-06-08T16:27:17.186Z,1015.42
2019-06-08T16:28:17.170Z,1015.47
2019-06-08T16:29:17.196Z,1015.40
2019-06-08T16:30:17.150Z,1015.38
2019-06-08T16:31:17.152Z,1015.34
2019-06-08T16:32:17.124Z,1015.29
2019-06-08T16:33:17.116Z,1015.28
2019-06-08T16:34:17.134Z,1015.20
2019-06-08T16:35:17.088Z,1015.33
2019-06-08T16:36:17.087Z,1015.35
2019-06-08T16:37:17.083Z,1015.28
2019-06-08T16:38:17.056Z,1015.35
2019-06-08T16:39:17.074Z,1015.34
2019-06-08T16:40:17.036Z,1015.30
2019-06-08T16:41:17.026Z,1015.37
2019-06-08T16:42:17.011Z,1015.42
2019-06-08T16:43:16.998Z,1015.40
2019-06-08T16:44:16.995Z,1015.37
2019-06-08T16:45:16.982Z,1015.26
2019-06-08T16:46:16.966Z,1015.31
2019-06-08T16:47:16.958Z,1015.34
2019-06-08T16:48:16.957Z,1015.34
2019-06-08T16:49:16.961Z,1015.33
2019-06-08T16:50:24.390Z,1015.33
2019-06-08T16:51:17.909Z,1015.42
2019-06-08T16:52:17.376Z,1015.45
2019-06-08T16:53:16.886Z,1015.48
2019-06-08T16:54:16.887Z,1015.46
2019-06-08T16:55:16.862Z,1015.44
2019-06-08T16:56:16.853Z,1015.44
2019-06-08T16:57:16.839Z,1015.51
2019-06-08T16:58:16.828Z,1015.56
2019-06-08T16:59:16.826Z,1015.49
2019-06-08T17:00:30.732Z,1015.52
2019-06-08T17:01:17.796Z,1015.51
2019-06-08T17:02:17.165Z,1015.64
2019-06-08T17:03:16.773Z,1015.52
2019-06-08T17:04:16.828Z,1015.60
2019-06-08T17:05:16.748Z,1015.57
2019-06-08T17:06:16.736Z,1015.66
2019-06-08T17:07:16.723Z,1015.62
2019-06-08T17:08:16.722Z,1015.69
2019-06-08T17:09:16.706Z,1015.65
2019-06-08T17:10:16.699Z,1015.72
2019-06-08T17:11:16.683Z,1015.71
2019-06-08T17:12:16.668Z,1015.69
2019-06-08T17:13:16.654Z,1015.75
2019-06-08T17:14:16.646Z,1015.69
2019-06-08T17:15:16.654Z,1015.76
2019-06-08T17:16:16.624Z,1015.84
2019-06-08T17:17:16.616Z,1015.87
2019-06-08T17:18:16.619Z,1015.98
2019-06-08T17:19:16.587Z,1016.13
2019-06-08T17:20:16.589Z,1016.18
2019-06-08T17:21:16.593Z,1016.41
2019-06-08T17:22:16.554Z,1016.38
2019-06-08T17:23:16.572Z,1016.41
2019-06-08T17:24:16.529Z,1016.36
2019-06-08T17:25:16.529Z,1016.39
2019-06-08T17:26:16.538Z,1016.41
2019-06-08T17:27:26.428Z,1016.45
2019-06-08T17:28:17.746Z,1016.41
2019-06-08T17:29:16.476Z,1016.37
2019-06-08T17:30:16.474Z,1016.31
2019-06-08T17:31:16.456Z,1016.34
2019-06-08T17:32:16.442Z,1016.35
2019-06-08T17:33:16.442Z,1016.34
2019-06-08T17:34:16.415Z,1016.28
2019-06-08T17:35:16.422Z,1016.29
2019-06-08T17:36:16.392Z,1016.27
2019-06-08T17:37:16.381Z,1016.26
2019-06-08T17:38:16.372Z,1016.26
2019-06-08T17:39:16.361Z,1016.33
2019-06-08T17:40:16.358Z,1016.36
2019-06-08T17:41:16.340Z,1016.37
2019-06-08T17:42:16.482Z,1016.39
2019-06-08T17:43:16.313Z,1016.36
2019-06-08T17:44:16.339Z,1016.37
2019-06-08T17:45:16.299Z,1016.33
2019-06-08T17:46:16.281Z,1016.32
2019-06-08T17:47:16.274Z,1016.27
2019-06-08T17:48:16.265Z,1016.24
2019-06-08T17:49:16.260Z,1016.32
2019-06-08T17:50:16.249Z,1016.32
2019-06-08T17:51:16.226Z,1016.32
2019-06-08T17:52:16.235Z,1016.40
2019-06-08T17:53:16.203Z,1016.40
2019-06-08T17:54:16.195Z,1016.37
2019-06-08T17:55:16.190Z,1016.36
2019-06-08T17:56:16.209Z,1016.28
2019-06-08T17:57:16.156Z,1016.37
2019-06-08T17:58:16.144Z,1016.31
2019-06-08T17:59:16.133Z,1016.36
2019-06-08T18:00:16.152Z,1016.48
2019-06-08T18:01:16.177Z,1016.48
2019-06-08T18:02:25.369Z,1016.50
2019-06-08T18:03:17.339Z,1016.42
2019-06-08T18:04:17.500Z,1016.54
2019-06-08T18:05:17.967Z,1016.46
2019-06-08T18:06:17.948Z,1016.49
2019-06-08T18:07:17.116Z,1016.52
2019-06-08T18:08:17.517Z,1016.44
2019-06-08T18:09:17.800Z,1016.45
2019-06-08T18:10:17.990Z,1016.48
2019-06-08T18:11:17.340Z,1016.48
2019-06-08T18:12:18.125Z,1016.44
2019-06-08T18:13:18.296Z,1016.49
2019-06-08T18:14:18.065Z,1016.50
2019-06-08T18:15:17.436Z,1016.51
2019-06-08T18:16:17.547Z,1016.47
2019-06-08T18:17:17.727Z,1016.49
2019-06-08T18:18:17.622Z,1016.54
2019-06-08T18:19:17.196Z,1016.52
2019-06-08T18:20:17.779Z,1016.50
2019-06-08T18:21:17.745Z,1016.55
2019-06-08T18:22:18.571Z,1016.62
2019-06-08T18:23:17.355Z,1016.63
2019-06-08T18:24:17.524Z,1016.66
2019-06-08T18:25:17.331Z,1016.66
2019-06-08T18:26:17.236Z,1016.62
2019-06-08T18:27:18.060Z,1016.67
2019-06-08T18:28:17.233Z,1016.66
2019-06-08T18:29:18.031Z,1016.67
2019-06-08T18:30:18.756Z,1016.78
2019-06-08T18:31:17.989Z,1016.70
2019-06-08T18:32:17.977Z,1016.66
2019-06-08T18:33:17.915Z,1016.76
2019-06-08T18:34:17.832Z,1016.69
2019-06-08T18:35:18.055Z,1016.70
2019-06-08T18:36:17.398Z,1016.79
2019-06-08T18:37:17.892Z,1016.72
2019-06-08T18:38:17.787Z,1016.72
2019-06-08T18:39:17.870Z,1016.68
2019-06-08T18:40:17.998Z,1016.74
2019-06-08T18:41:17.691Z,1016.77
2019-06-08T18:42:17.628Z,1016.79
2019-06-08T18:43:17.042Z,1016.76
2019-06-08T18:44:17.417Z,1016.76
2019-06-08T18:45:18.014Z,1016.76
2019-06-08T18:46:17.832Z,1016.73
2019-06-08T18:47:17.671Z,1016.74
